createdAt,value
2022-09-06T00:00:32.977Z,1028.3077864079999
2022-09-06T00:01:32.972Z,1028.2400588320002
2022-09-06T00:02:33.063Z,1028.2400588320002
2022-09-06T00:03:33.007Z,1028.3077864079999
2022-09-06T00:04:33.112Z,1028.3077864079999
2022-09-06T00:05:32.994Z,1028.3077864079999
2022-09-06T00:06:32.952Z,1028.138467468
2022-09-06T00:07:32.969Z,1028.5109691359999
2022-09-06T00:08:32.948Z,1028.3077864079999
2022-09-06T00:09:32.984Z,1028.3077864079999
2022-09-06T00:10:33.174Z,1028.3077864079999
2022-09-06T00:11:32.978Z,1028.3077864079999
2022-09-06T00:12:32.975Z,1028.3077864079999
2022-09-06T00:13:32.960Z,1028.138467468
2022-09-06T00:14:32.974Z,1028.2400588320002
2022-09-06T00:15:32.992Z,1028.409377772
2022-09-06T00:16:33.066Z,1028.3077864079999
2022-09-06T00:17:32.970Z,1028.2400588320002
2022-09-06T00:18:32.959Z,1028.3077864079999
2022-09-06T00:19:32.998Z,1028.2400588320002
2022-09-06T00:20:33.057Z,1028.6125605
2022-09-06T00:21:32.989Z,1028.138467468
2022-09-06T00:22:32.995Z,1028.138467468
2022-09-06T00:23:33.079Z,1028.2400588320002
2022-09-06T00:24:32.958Z,1028.3077864079999
2022-09-06T00:25:33.084Z,1028.409377772
2022-09-06T00:26:32.990Z,1028.2400588320002
2022-09-06T00:27:32.960Z,1028.3077864079999
2022-09-06T00:28:32.968Z,1028.3077864079999
2022-09-06T00:29:32.958Z,1028.5109691359999
2022-09-06T00:30:32.996Z,1028.3077864079999
2022-09-06T00:31:33.019Z,1028.2400588320002
2022-09-06T00:32:32.976Z,1028.3077864079999
2022-09-06T00:33:32.993Z,1028.3077864079999
2022-09-06T00:34:32.960Z,1028.2400588320002
2022-09-06T00:35:32.996Z,1028.138467468
2022-09-06T00:36:32.981Z,1028.3077864079999
2022-09-06T00:37:33.009Z,1028.2400588320002
2022-09-06T00:38:32.979Z,1028.2400588320002
2022-09-06T00:39:33.005Z,1028.138467468
2022-09-06T00:40:32.992Z,1028.2400588320002
2022-09-06T00:41:32.983Z,1028.138467468
2022-09-06T00:42:32.971Z,1028.3077864079999
2022-09-06T00:43:32.993Z,1028.5109691359999
2022-09-06T00:44:32.965Z,1028.2400588320002
2022-09-06T00:45:32.972Z,1028.036876104
2022-09-06T00:46:33.034Z,1028.2400588320002
2022-09-06T00:47:32.956Z,1028.2400588320002
2022-09-06T00:48:32.966Z,1028.036876104
2022-09-06T00:49:32.987Z,1028.036876104
2022-09-06T00:50:32.969Z,1028.3077864079999
2022-09-06T00:51:32.964Z,1028.2400588320002
2022-09-06T00:52:33.014Z,1028.3077864079999
2022-09-06T00:53:32.965Z,1028.036876104
2022-09-06T00:54:32.987Z,1027.93528474
2022-09-06T00:55:32.946Z,1028.138467468
2022-09-06T00:56:32.951Z,1028.036876104
2022-09-06T00:57:32.956Z,1028.036876104
2022-09-06T00:58:32.975Z,1028.138467468
2022-09-06T00:59:32.978Z,1028.036876104
2022-09-06T01:00:32.974Z,1028.036876104
2022-09-06T01:01:33.012Z,1028.3077864079999
2022-09-06T01:02:33.133Z,1027.93528474
2022-09-06T01:03:32.973Z,1028.2400588320002
2022-09-06T01:04:32.958Z,1028.138467468
2022-09-06T01:05:32.937Z,1028.138467468
2022-09-06T01:06:32.972Z,1028.3077864079999
2022-09-06T01:07:32.969Z,1028.2400588320002
2022-09-06T01:08:33.280Z,1028.138467468
2022-09-06T01:09:32.958Z,1028.2400588320002
2022-09-06T01:10:33.082Z,1027.93528474
2022-09-06T01:11:32.964Z,1028.2400588320002
2022-09-06T01:12:32.978Z,1028.2400588320002
2022-09-06T01:13:32.962Z,1028.138467468
2022-09-06T01:14:32.970Z,1028.036876104
2022-09-06T01:15:33.136Z,1028.138467468
2022-09-06T01:16:32.980Z,1028.036876104
2022-09-06T01:17:32.949Z,1027.6305106480002
2022-09-06T01:18:32.986Z,1028.036876104
2022-09-06T01:19:32.988Z,1027.93528474
2022-09-06T01:20:32.993Z,1028.036876104
2022-09-06T01:21:32.976Z,1027.93528474
2022-09-06T01:22:32.978Z,1028.036876104
2022-09-06T01:23:32.977Z,1027.93528474
2022-09-06T01:24:32.961Z,1028.2400588320002
2022-09-06T01:25:32.959Z,1027.833693376
2022-09-06T01:26:32.947Z,1028.036876104
2022-09-06T01:27:32.977Z,1027.93528474
2022-09-06T01:28:32.936Z,1027.833693376
2022-09-06T01:29:32.969Z,1028.138467468
2022-09-06T01:30:32.969Z,1027.93528474
2022-09-06T01:31:32.951Z,1027.93528474
2022-09-06T01:32:33.159Z,1028.036876104
2022-09-06T01:33:32.968Z,1027.93528474
2022-09-06T01:34:33.004Z,1028.036876104
2022-09-06T01:35:32.979Z,1028.036876104
2022-09-06T01:36:32.967Z,1028.036876104
2022-09-06T01:37:32.922Z,1027.93528474
2022-09-06T01:38:32.977Z,1028.138467468
2022-09-06T01:39:33.041Z,1027.833693376
2022-09-06T01:40:33.110Z,1028.138467468
2022-09-06T01:41:33.120Z,1027.833693376
2022-09-06T01:42:33.161Z,1027.93528474
2022-09-06T01:43:33.074Z,1028.036876104
2022-09-06T01:44:33.107Z,1027.833693376
2022-09-06T01:45:33.064Z,1027.732102012
2022-09-06T01:46:33.172Z,1027.732102012
2022-09-06T01:47:33.119Z,1027.93528474
2022-09-06T01:48:33.011Z,1028.036876104
2022-09-06T01:49:33.019Z,1028.036876104
2022-09-06T01:50:32.956Z,1027.833693376
2022-09-06T01:51:32.969Z,1028.138467468
2022-09-06T01:52:32.988Z,1027.732102012
2022-09-06T01:53:32.967Z,1027.93528474
2022-09-06T01:54:32.985Z,1027.93528474
2022-09-06T01:55:32.990Z,1027.93528474
2022-09-06T01:56:32.946Z,1027.833693376
2022-09-06T01:57:32.961Z,1027.833693376
2022-09-06T01:58:32.977Z,1027.732102012
2022-09-06T01:59:32.978Z,1027.93528474
2022-09-06T02:00:33.055Z,1027.833693376
2022-09-06T02:01:33.052Z,1027.93528474
2022-09-06T02:02:33.086Z,1027.93528474
2022-09-06T02:03:32.937Z,1027.732102012
2022-09-06T02:04:32.934Z,1027.732102012
2022-09-06T02:05:32.957Z,1027.732102012
2022-09-06T02:06:32.999Z,1027.732102012
2022-09-06T02:07:32.958Z,1027.833693376
2022-09-06T02:08:32.936Z,1027.833693376
2022-09-06T02:09:32.969Z,1027.833693376
2022-09-06T02:10:32.969Z,1027.833693376
2022-09-06T02:11:32.983Z,1027.833693376
2022-09-06T02:12:32.949Z,1027.732102012
2022-09-06T02:13:33.039Z,1027.93528474
2022-09-06T02:14:33.006Z,1027.6305106480002
2022-09-06T02:15:32.956Z,1027.833693376
2022-09-06T02:16:32.992Z,1027.732102012
2022-09-06T02:17:32.980Z,1027.93528474
2022-09-06T02:18:33.003Z,1027.6305106480002
2022-09-06T02:19:32.955Z,1027.732102012
2022-09-06T02:20:32.984Z,1027.6305106480002
2022-09-06T02:21:32.977Z,1027.732102012
2022-09-06T02:22:32.964Z,1027.6305106480002
2022-09-06T02:23:33.091Z,1027.732102012
2022-09-06T02:24:32.987Z,1027.732102012
2022-09-06T02:25:32.959Z,1027.6305106480002
2022-09-06T02:26:32.983Z,1027.833693376
2022-09-06T02:27:32.937Z,1027.833693376
2022-09-06T02:28:32.947Z,1027.833693376
2022-09-06T02:29:32.957Z,1027.732102012
2022-09-06T02:30:33.005Z,1027.732102012
2022-09-06T02:31:33.036Z,1027.93528474
2022-09-06T02:32:32.927Z,1027.93528474
2022-09-06T02:33:32.941Z,1027.732102012
2022-09-06T02:34:32.954Z,1027.732102012
2022-09-06T02:35:32.971Z,1027.93528474
2022-09-06T02:36:32.949Z,1027.732102012
2022-09-06T02:37:32.992Z,1027.732102012
2022-09-06T02:38:32.947Z,1027.732102012
2022-09-06T02:39:33.011Z,1027.732102012
2022-09-06T02:40:32.965Z,1027.833693376
2022-09-06T02:41:32.957Z,1027.528919284
2022-09-06T02:42:32.945Z,1027.6305106480002
2022-09-06T02:43:33.040Z,1027.833693376
2022-09-06T02:44:32.990Z,1027.528919284
2022-09-06T02:45:32.957Z,1027.732102012
2022-09-06T02:46:33.158Z,1027.833693376
2022-09-06T02:47:33.208Z,1027.6305106480002
2022-09-06T02:48:32.946Z,1027.528919284
2022-09-06T02:49:32.981Z,1027.6305106480002
2022-09-06T02:50:32.972Z,1027.732102012
2022-09-06T02:51:33.070Z,1027.6305106480002
2022-09-06T02:52:32.931Z,1027.528919284
2022-09-06T02:53:33.082Z,1027.42732792
2022-09-06T02:54:32.948Z,1027.528919284
2022-09-06T02:55:32.970Z,1027.833693376
2022-09-06T02:56:33.111Z,1027.6305106480002
2022-09-06T02:57:33.057Z,1027.6305106480002
2022-09-06T02:58:32.979Z,1027.528919284
2022-09-06T02:59:32.974Z,1027.325736556
2022-09-06T03:00:32.992Z,1027.6305106480002
2022-09-06T03:01:32.996Z,1027.732102012
2022-09-06T03:02:33.019Z,1027.6305106480002
2022-09-06T03:03:33.056Z,1027.528919284
2022-09-06T03:04:32.949Z,1027.42732792
2022-09-06T03:05:32.946Z,1027.528919284
2022-09-06T03:06:32.968Z,1027.42732792
2022-09-06T03:07:32.945Z,1027.528919284
2022-09-06T03:08:32.995Z,1027.42732792
2022-09-06T03:09:32.951Z,1027.42732792
2022-09-06T03:10:33.075Z,1027.325736556
2022-09-06T03:11:32.952Z,1027.528919284
2022-09-06T03:12:33.086Z,1027.42732792
2022-09-06T03:13:33.061Z,1027.528919284
2022-09-06T03:14:32.968Z,1027.42732792
2022-09-06T03:15:33.041Z,1027.325736556
2022-09-06T03:16:33.069Z,1027.42732792
2022-09-06T03:17:33.127Z,1027.42732792
2022-09-06T03:18:33.084Z,1027.42732792
2022-09-06T03:19:32.998Z,1027.42732792
2022-09-06T03:20:36.808Z,1027.42732792
2022-09-06T03:21:33.121Z,1027.6305106480002
2022-09-06T03:22:33.084Z,1027.325736556
2022-09-06T03:23:33.112Z,1027.42732792
2022-09-06T03:24:33.055Z,1027.42732792
2022-09-06T03:25:33.005Z,1027.224145192
2022-09-06T03:26:33.061Z,1027.42732792
2022-09-06T03:27:33.085Z,1027.224145192
2022-09-06T03:28:32.954Z,1027.42732792
2022-09-06T03:29:32.949Z,1027.122553828
2022-09-06T03:30:33.015Z,1027.42732792
2022-09-06T03:31:32.948Z,1027.325736556
2022-09-06T03:32:32.954Z,1027.224145192
2022-09-06T03:33:32.950Z,1027.224145192
2022-09-06T03:34:32.928Z,1027.325736556
2022-09-06T03:35:32.991Z,1027.122553828
2022-09-06T03:36:32.977Z,1027.122553828
2022-09-06T03:37:32.955Z,1027.224145192
2022-09-06T03:38:32.951Z,1027.325736556
2022-09-06T03:39:33.016Z,1027.325736556
2022-09-06T03:40:33.112Z,1027.122553828
2022-09-06T03:41:33.102Z,1027.224145192
2022-09-06T03:42:33.082Z,1027.122553828
2022-09-06T03:43:32.967Z,1027.325736556
2022-09-06T03:44:32.964Z,1027.224145192
2022-09-06T03:45:32.957Z,1027.42732792
2022-09-06T03:46:32.963Z,1027.224145192
2022-09-06T03:47:32.964Z,1027.325736556
2022-09-06T03:48:33.083Z,1027.224145192
2022-09-06T03:49:32.949Z,1027.020962464
2022-09-06T03:50:32.954Z,1027.325736556
2022-09-06T03:51:33.091Z,1027.224145192
2022-09-06T03:52:32.946Z,1027.122553828
2022-09-06T03:53:32.928Z,1027.325736556
2022-09-06T03:54:32.969Z,1027.224145192
2022-09-06T03:55:33.005Z,1027.122553828
2022-09-06T03:56:32.949Z,1027.122553828
2022-09-06T03:57:32.939Z,1027.325736556
2022-09-06T03:58:32.962Z,1027.42732792
2022-09-06T03:59:32.969Z,1027.122553828
2022-09-06T04:00:37.132Z,1027.122553828
2022-09-06T04:01:33.054Z,1027.224145192
2022-09-06T04:02:33.123Z,1027.325736556
2022-09-06T04:03:32.997Z,1027.122553828
2022-09-06T04:04:32.966Z,1027.325736556
2022-09-06T04:05:32.983Z,1027.122553828
2022-09-06T04:06:33.330Z,1027.122553828
2022-09-06T04:07:32.982Z,1027.122553828
2022-09-06T04:08:32.955Z,1027.122553828
2022-09-06T04:09:32.972Z,1027.528919284
2022-09-06T04:10:33.048Z,1027.224145192
2022-09-06T04:11:32.931Z,1027.122553828
2022-09-06T04:12:33.013Z,1027.325736556
2022-09-06T04:13:32.942Z,1027.224145192
2022-09-06T04:14:32.957Z,1027.224145192
2022-09-06T04:15:32.977Z,1027.122553828
2022-09-06T04:16:33.145Z,1027.020962464
2022-09-06T04:17:32.934Z,1027.224145192
2022-09-06T04:18:32.982Z,1027.020962464
2022-09-06T04:19:32.943Z,1027.020962464
2022-09-06T04:20:32.969Z,1027.224145192
2022-09-06T04:21:32.961Z,1027.122553828
2022-09-06T04:22:32.945Z,1027.224145192
2022-09-06T04:23:37.678Z,1027.224145192
2022-09-06T04:24:32.949Z,1027.020962464
2022-09-06T04:25:33.013Z,1026.9193711
2022-09-06T04:26:32.950Z,1027.122553828
2022-09-06T04:27:32.942Z,1027.224145192
2022-09-06T04:28:32.935Z,1027.122553828
2022-09-06T04:29:32.966Z,1027.122553828
2022-09-06T04:30:32.932Z,1026.9193711
2022-09-06T04:31:32.957Z,1027.122553828
2022-09-06T04:32:32.946Z,1027.122553828
2022-09-06T04:33:32.954Z,1027.020962464
2022-09-06T04:34:33.084Z,1027.020962464
2022-09-06T04:35:32.931Z,1027.224145192
2022-09-06T04:36:32.963Z,1027.224145192
2022-09-06T04:37:32.935Z,1026.9193711
2022-09-06T04:38:32.952Z,1027.122553828
2022-09-06T04:39:32.990Z,1027.122553828
2022-09-06T04:40:32.966Z,1026.9193711
2022-09-06T04:41:33.008Z,1026.9193711
2022-09-06T04:42:32.954Z,1027.020962464
2022-09-06T04:43:32.917Z,1027.020962464
2022-09-06T04:44:32.952Z,1026.7161883719998
2022-09-06T04:45:33.052Z,1026.7161883719998
2022-09-06T04:46:32.937Z,1027.122553828
2022-09-06T04:47:32.935Z,1026.817779736
2022-09-06T04:48:33.005Z,1027.020962464
2022-09-06T04:49:32.973Z,1026.7161883719998
2022-09-06T04:50:32.981Z,1026.9193711
2022-09-06T04:51:32.947Z,1026.817779736
2022-09-06T04:52:32.951Z,1026.614597008
2022-09-06T04:53:32.947Z,1026.7161883719998
2022-09-06T04:54:33.019Z,1026.817779736
2022-09-06T04:55:32.925Z,1027.020962464
2022-09-06T04:56:32.949Z,1026.7161883719998
2022-09-06T04:57:32.972Z,1026.7161883719998
2022-09-06T04:58:32.964Z,1026.817779736
2022-09-06T04:59:32.918Z,1026.817779736
2022-09-06T05:00:32.951Z,1026.9193711
2022-09-06T05:01:33.010Z,1026.817779736
2022-09-06T05:02:33.059Z,1026.817779736
2022-09-06T05:03:33.012Z,1026.817779736
2022-09-06T05:04:32.933Z,1026.7161883719998
2022-09-06T05:05:32.956Z,1026.513005644
2022-09-06T05:06:32.951Z,1026.7161883719998
2022-09-06T05:07:32.952Z,1026.817779736
2022-09-06T05:08:32.993Z,1026.817779736
2022-09-06T05:09:32.961Z,1027.020962464
2022-09-06T05:10:32.930Z,1026.9193711
2022-09-06T05:11:32.955Z,1026.614597008
2022-09-06T05:12:32.921Z,1026.614597008
2022-09-06T05:13:33.120Z,1027.020962464
2022-09-06T05:14:32.932Z,1026.7161883719998
2022-09-06T05:15:32.962Z,1026.9193711
2022-09-06T05:16:32.965Z,1026.9193711
2022-09-06T05:17:32.977Z,1026.614597008
2022-09-06T05:18:32.981Z,1026.614597008
2022-09-06T05:19:32.967Z,1026.7161883719998
2022-09-06T05:20:32.993Z,1026.614597008
2022-09-06T05:21:32.934Z,1026.614597008
2022-09-06T05:22:32.947Z,1026.7161883719998
2022-09-06T05:23:32.944Z,1026.7161883719998
2022-09-06T05:24:32.949Z,1026.817779736
2022-09-06T05:25:32.963Z,1026.9193711
2022-09-06T05:26:32.926Z,1026.9193711
2022-09-06T05:27:32.934Z,1026.7161883719998
2022-09-06T05:28:32.921Z,1026.614597008
2022-09-06T05:29:32.955Z,1026.513005644
2022-09-06T05:30:32.965Z,1026.614597008
2022-09-06T05:31:33.034Z,1026.614597008
2022-09-06T05:32:32.936Z,1026.513005644
2022-09-06T05:33:32.946Z,1026.614597008
2022-09-06T05:34:32.945Z,1026.41141428
2022-09-06T05:35:32.958Z,1026.614597008
2022-09-06T05:36:32.951Z,1026.7161883719998
2022-09-06T05:37:32.939Z,1026.817779736
2022-09-06T05:38:33.145Z,1026.7161883719998
2022-09-06T05:39:33.145Z,1026.7161883719998
2022-09-06T05:40:32.936Z,1026.817779736
2022-09-06T05:41:33.015Z,1026.7161883719998
2022-09-06T05:42:33.011Z,1026.614597008
2022-09-06T05:43:32.959Z,1026.7161883719998
2022-09-06T05:44:32.947Z,1026.7161883719998
2022-09-06T05:45:33.013Z,1026.7161883719998
2022-09-06T05:46:33.016Z,1026.7161883719998
2022-09-06T05:47:32.966Z,1026.817779736
2022-09-06T05:48:36.862Z,1026.817779736
2022-09-06T05:49:32.970Z,1026.817779736
2022-09-06T05:50:32.946Z,1026.7161883719998
2022-09-06T05:51:32.938Z,1026.7161883719998
2022-09-06T05:52:32.915Z,1026.817779736
2022-09-06T05:53:32.939Z,1026.817779736
2022-09-06T05:54:32.967Z,1026.7161883719998
2022-09-06T05:55:33.134Z,1026.513005644
2022-09-06T05:56:32.915Z,1026.817779736
2022-09-06T05:57:32.925Z,1026.7161883719998
2022-09-06T05:58:32.951Z,1026.7161883719998
2022-09-06T05:59:32.943Z,1026.614597008
2022-09-06T06:00:32.900Z,1026.9193711
2022-09-06T06:01:33.019Z,1026.513005644
2022-09-06T06:02:33.161Z,1026.7161883719998
2022-09-06T06:03:32.963Z,1026.7161883719998
2022-09-06T06:04:32.971Z,1026.614597008
2022-09-06T06:05:32.900Z,1026.7161883719998
2022-09-06T06:06:32.938Z,1026.614597008
2022-09-06T06:07:33.198Z,1026.7161883719998
2022-09-06T06:08:32.972Z,1026.7161883719998
2022-09-06T06:09:32.931Z,1026.7161883719998
2022-09-06T06:10:36.670Z,1026.513005644
2022-09-06T06:11:32.934Z,1026.614597008
2022-09-06T06:12:32.930Z,1026.614597008
2022-09-06T06:13:33.013Z,1026.513005644
2022-09-06T06:14:32.929Z,1026.513005644
2022-09-06T06:15:33.273Z,1026.7161883719998
2022-09-06T06:16:33.033Z,1026.41141428
2022-09-06T06:17:32.939Z,1026.41141428
2022-09-06T06:18:32.922Z,1026.513005644
2022-09-06T06:19:32.956Z,1026.41141428
2022-09-06T06:20:33.026Z,1026.208231552
2022-09-06T06:21:33.021Z,1026.309822916
2022-09-06T06:22:32.942Z,1026.41141428
2022-09-06T06:23:32.932Z,1026.41141428
2022-09-06T06:24:32.973Z,1026.614597008
2022-09-06T06:25:32.911Z,1026.208231552
2022-09-06T06:26:32.936Z,1026.309822916
2022-09-06T06:27:33.041Z,1026.309822916
2022-09-06T06:28:32.970Z,1026.208231552
2022-09-06T06:29:32.951Z,1026.41141428
2022-09-06T06:30:32.935Z,1026.513005644
2022-09-06T06:31:33.035Z,1026.41141428
2022-09-06T06:32:32.958Z,1026.41141428
2022-09-06T06:33:32.933Z,1026.41141428
2022-09-06T06:34:32.929Z,1026.513005644
2022-09-06T06:35:36.064Z,1026.309822916
2022-09-06T06:36:32.939Z,1026.41141428
2022-09-06T06:37:32.918Z,1026.41141428
2022-09-06T06:38:32.943Z,1026.309822916
2022-09-06T06:39:32.961Z,1026.41141428
2022-09-06T06:40:32.935Z,1026.41141428
2022-09-06T06:41:32.945Z,1026.309822916
2022-09-06T06:42:33.013Z,1026.208231552
2022-09-06T06:43:32.908Z,1026.309822916
2022-09-06T06:44:32.891Z,1026.208231552
2022-09-06T06:45:33.001Z,1026.41141428
2022-09-06T06:46:32.953Z,1026.309822916
2022-09-06T06:47:32.936Z,1026.140503976
2022-09-06T06:48:32.914Z,1026.140503976
2022-09-06T06:49:32.925Z,1026.140503976
2022-09-06T06:50:32.935Z,1026.208231552
2022-09-06T06:51:32.931Z,1026.309822916
2022-09-06T06:52:32.916Z,1026.309822916
2022-09-06T06:53:32.920Z,1026.140503976
2022-09-06T06:54:32.932Z,1026.208231552
2022-09-06T06:55:32.961Z,1026.208231552
2022-09-06T06:56:32.952Z,1026.0389126119999
2022-09-06T06:57:32.913Z,1026.309822916
2022-09-06T06:58:32.923Z,1026.208231552
2022-09-06T06:59:32.937Z,1026.208231552
2022-09-06T07:00:33.101Z,1026.41141428
2022-09-06T07:01:33.120Z,1026.41141428
2022-09-06T07:02:32.937Z,1026.309822916
2022-09-06T07:03:32.947Z,1026.41141428
2022-09-06T07:04:32.917Z,1026.208231552
2022-09-06T07:07:34.545Z,1026.140503976
2022-09-06T07:08:32.985Z,1026.309822916
2022-09-06T07:10:33.269Z,1026.208231552
2022-09-06T07:11:32.912Z,1026.140503976
2022-09-06T07:12:32.949Z,1026.140503976
2022-09-06T07:13:32.984Z,1026.208231552
2022-09-06T07:14:32.916Z,1026.208231552
2022-09-06T07:15:32.946Z,1026.140503976
2022-09-06T07:16:33.139Z,1026.140503976
2022-09-06T07:17:38.325Z,1026.140503976
2022-09-06T07:18:41.488Z,1026.140503976
2022-09-06T07:20:14.208Z,1026.309822916
2022-09-06T07:21:53.577Z,1026.0389126119999
2022-09-06T07:25:05.506Z,1025.937321248
2022-09-06T07:26:09.509Z,1025.835729884
2022-09-06T07:28:17.641Z,1025.835729884
2022-09-06T07:29:21.480Z,1025.835729884
2022-09-06T07:30:25.536Z,1026.0389126119999
2022-09-06T07:32:32.982Z,1025.937321248
2022-09-06T07:33:32.964Z,1025.835729884
2022-09-06T07:34:32.941Z,1025.937321248
2022-09-06T07:35:32.937Z,1025.73413852
2022-09-06T07:36:33.011Z,1025.835729884
2022-09-06T07:37:32.947Z,1025.835729884
2022-09-06T07:38:32.950Z,1025.835729884
2022-09-06T07:39:33.060Z,1025.835729884
2022-09-06T07:40:32.976Z,1025.73413852
2022-09-06T07:41:32.951Z,1025.73413852
2022-09-06T07:42:36.186Z,1025.73413852
2022-09-06T07:43:32.927Z,1025.835729884
2022-09-06T07:44:32.977Z,1025.6325471559999
2022-09-06T07:45:32.921Z,1025.73413852
2022-09-06T07:46:33.062Z,1025.6325471559999
2022-09-06T07:47:57.717Z,1025.73413852
2022-09-06T07:48:33.013Z,1025.835729884
2022-09-06T07:49:34.813Z,1025.835729884
2022-09-06T07:50:49.251Z,1025.6325471559999
2022-09-06T07:51:32.972Z,1025.4293644279999
2022-09-06T07:53:33.221Z,1025.6325471559999
2022-09-06T07:54:32.961Z,1025.6325471559999
2022-09-06T07:55:32.917Z,1025.835729884
2022-09-06T07:56:32.924Z,1025.73413852
2022-09-06T07:57:32.966Z,1025.530955792
2022-09-06T07:58:32.924Z,1025.530955792
2022-09-06T07:59:32.933Z,1025.4293644279999
2022-09-06T08:00:33.021Z,1025.6325471559999
2022-09-06T08:01:32.877Z,1025.6325471559999
2022-09-06T08:02:33.009Z,1025.530955792
2022-09-06T08:03:32.950Z,1025.6325471559999
2022-09-06T08:04:32.957Z,1025.835729884
2022-09-06T08:08:59.486Z,1025.4293644279999
2022-09-06T08:09:33.023Z,1025.530955792
2022-09-06T08:10:32.929Z,1025.530955792
2022-09-06T08:11:32.978Z,1025.4293644279999
2022-09-06T08:12:32.907Z,1025.73413852
2022-09-06T08:13:32.916Z,1025.530955792
2022-09-06T08:14:32.969Z,1025.4293644279999
2022-09-06T08:15:33.600Z,1025.4293644279999
2022-09-06T08:16:33.058Z,1025.4293644279999
2022-09-06T08:17:32.940Z,1025.4293644279999
2022-09-06T08:18:33.273Z,1025.4293644279999
2022-09-06T08:19:32.937Z,1025.530955792
2022-09-06T08:20:33.008Z,1025.4293644279999
2022-09-06T08:21:33.005Z,1025.4293644279999
2022-09-06T08:22:32.930Z,1025.4293644279999
2022-09-06T08:23:32.927Z,1025.327773064
2022-09-06T08:24:32.970Z,1025.2261816999999
2022-09-06T08:25:33.003Z,1025.4293644279999
2022-09-06T08:26:32.920Z,1025.327773064
2022-09-06T08:27:32.928Z,1025.0229989719999
2022-09-06T08:28:32.923Z,1025.327773064
2022-09-06T08:29:32.921Z,1025.327773064
2022-09-06T08:30:33.016Z,1025.327773064
2022-09-06T08:31:32.957Z,1025.327773064
2022-09-06T08:32:32.924Z,1025.327773064
2022-09-06T08:33:32.936Z,1025.2261816999999
2022-09-06T08:34:32.920Z,1025.2261816999999
2022-09-06T08:35:32.976Z,1025.124590336
2022-09-06T08:36:32.904Z,1025.327773064
2022-09-06T08:37:32.972Z,1025.327773064
2022-09-06T08:38:32.960Z,1025.327773064
2022-09-06T08:39:33.004Z,1025.124590336
2022-09-06T08:40:32.973Z,1025.2261816999999
2022-09-06T08:41:32.935Z,1025.124590336
2022-09-06T08:42:32.938Z,1025.124590336
2022-09-06T08:43:32.925Z,1025.124590336
2022-09-06T08:44:57.576Z,1025.2261816999999
2022-09-06T08:45:33.025Z,1025.2261816999999
2022-09-06T08:46:32.989Z,1025.0229989719999
2022-09-06T08:47:32.975Z,1025.124590336
2022-09-06T08:48:32.904Z,1024.9214076079998
2022-09-06T08:49:33.003Z,1025.124590336
2022-09-06T08:50:32.916Z,1025.0229989719999
2022-09-06T08:51:34.454Z,1025.0229989719999
2022-09-06T08:52:32.894Z,1024.9214076079998
2022-09-06T08:53:32.900Z,1025.124590336
2022-09-06T08:54:32.930Z,1024.819816244
2022-09-06T08:55:33.002Z,1025.124590336
2022-09-06T08:56:32.919Z,1024.9214076079998
2022-09-06T08:57:34.976Z,1024.71822488
2022-09-06T08:58:32.912Z,1024.9214076079998
2022-09-06T08:59:32.996Z,1024.71822488
2022-09-06T09:00:32.998Z,1024.819816244
2022-09-06T09:01:32.950Z,1024.616633516
2022-09-06T09:02:32.909Z,1024.819816244
2022-09-06T09:03:32.929Z,1025.0229989719999
2022-09-06T09:04:32.927Z,1024.71822488
2022-09-06T09:05:32.923Z,1024.9214076079998
2022-09-06T09:06:32.919Z,1024.71822488
2022-09-06T09:07:32.959Z,1024.71822488
2022-09-06T09:08:32.977Z,1024.819816244
2022-09-06T09:09:32.929Z,1024.616633516
2022-09-06T09:10:32.950Z,1024.71822488
2022-09-06T09:11:32.912Z,1024.71822488
2022-09-06T09:12:32.899Z,1024.9214076079998
2022-09-06T09:13:32.966Z,1024.616633516
2022-09-06T09:14:32.918Z,1024.819816244
2022-09-06T09:15:35.968Z,1024.71822488
2022-09-06T09:16:32.972Z,1024.616633516
2022-09-06T09:17:33.080Z,1024.71822488
2022-09-06T09:18:32.915Z,1024.71822488
2022-09-06T09:19:32.922Z,1024.5150421520002
2022-09-06T09:20:32.992Z,1024.5150421520002
2022-09-06T09:21:32.923Z,1024.616633516
2022-09-06T09:22:32.910Z,1024.616633516
2022-09-06T09:23:32.904Z,1024.5150421520002
2022-09-06T09:24:33.009Z,1024.5150421520002
2022-09-06T09:25:32.928Z,1024.71822488
2022-09-06T09:26:32.919Z,1024.5150421520002
2022-09-06T09:27:32.927Z,1024.616633516
2022-09-06T09:28:32.904Z,1024.413450788
2022-09-06T09:29:36.122Z,1024.413450788
2022-09-06T09:30:49.474Z,1024.5150421520002
2022-09-06T09:31:33.089Z,1024.616633516
2022-09-06T09:32:32.913Z,1024.616633516
2022-09-06T09:33:32.944Z,1024.616633516
2022-09-06T09:34:32.967Z,1024.311859424
2022-09-06T09:35:32.909Z,1024.413450788
2022-09-06T09:36:32.909Z,1024.5150421520002
2022-09-06T09:37:50.385Z,1024.311859424
2022-09-06T09:38:33.062Z,1024.413450788
2022-09-06T09:39:32.970Z,1024.5150421520002
2022-09-06T09:40:32.903Z,1024.413450788
2022-09-06T09:41:33.006Z,1024.413450788
2022-09-06T09:42:32.939Z,1024.5150421520002
2022-09-06T09:43:33.002Z,1024.413450788
2022-09-06T09:44:32.913Z,1024.21026806
2022-09-06T09:45:32.912Z,1024.413450788
2022-09-06T09:46:33.018Z,1024.311859424
2022-09-06T09:47:32.970Z,1024.311859424
2022-09-06T09:48:32.899Z,1024.108676696
2022-09-06T09:49:32.954Z,1024.311859424
2022-09-06T09:50:32.912Z,1024.007085332
2022-09-06T09:51:32.942Z,1024.311859424
2022-09-06T09:52:32.900Z,1024.311859424
2022-09-06T09:53:32.957Z,1024.21026806
2022-09-06T09:54:32.924Z,1024.108676696
2022-09-06T09:55:32.923Z,1024.21026806
2022-09-06T09:56:32.906Z,1024.108676696
2022-09-06T09:57:32.960Z,1024.007085332
2022-09-06T09:58:32.915Z,1024.108676696
2022-09-06T09:59:32.932Z,1024.007085332